TimeEDT,TemperatureF,Dew PointF,Humidity,Sea Level PressureIn,VisibilityMPH,Wind Direction,Wind SpeedMPH,Gust SpeedMPH,PrecipitationIn,Events,Conditions,WindDirDegrees,DateUTC
12:55 AM,47.1,39.6,75,30.25,10.0,Calm,Calm,-,N/A,,Clear,0,2013-05-05 04:55:00
1:55 AM,45.3,39.4,80,30.24,10.0,Calm,Calm,-,N/A,,Clear,0,2013-05-05 05:55:00
2:55 AM,44.1,39.7,85,30.23,10.0,Calm,Calm,-,N/A,,Clear,0,2013-05-05 06:55:00
3:55 AM,45.5,39.6,80,30.24,10.0,Calm,Calm,-,N/A,,Clear,0,2013-05-05 07:55:00
4:43 AM,44.6,39.2,81,30.23,10.0,Variable,4.6,-,N/A,,Mostly Cloudy,0,2013-05-05 08:43:00
4:55 AM,45.9,39.6,79,30.22,10.0,Variable,3.5,-,N/A,,Mostly Cloudy,0,2013-05-05 08:55:00
5:55 AM,46.8,39.4,75,30.23,10.0,Variable,3.5,-,N/A,,Overcast,0,2013-05-05 09:55:00
6:10 AM,46.4,39.2,76,30.24,10.0,Variable,3.5,-,N/A,,Scattered Clouds,0,2013-05-05 10:10:00
6:55 AM,45.7,39.6,79,30.24,10.0,Calm,Calm,-,N/A,,Clear,0,2013-05-05 10:55:00
7:19 AM,48.2,39.2,71,30.24,10.0,Calm,Calm,-,N/A,,Mostly Cloudy,0,2013-05-05 11:19:00
7:55 AM,48.6,39.6,71,30.25,10.0,Variable,6.9,-,N/A,,Overcast,0,2013-05-05 11:55:00
8:55 AM,48.9,38.3,67,30.27,10.0,Variable,4.6,-,N/A,,Overcast,0,2013-05-05 12:55:00
9:55 AM,51.3,39.0,63,30.26,10.0,Variable,4.6,-,N/A,,Overcast,0,2013-05-05 13:55:00
10:33 AM,51.8,39.2,62,30.27,10.0,Variable,3.5,-,N/A,,Overcast,0,2013-05-05 14:33:00
10:55 AM,53.1,39.0,59,30.27,10.0,Variable,4.6,-,N/A,,Mostly Cloudy,0,2013-05-05 14:55:00
11:55 AM,55.8,40.1,56,30.25,10.0,Variable,4.6,-,N/A,,Scattered Clouds,0,2013-05-05 15:55:00
12:55 PM,57.6,41.0,54,30.24,10.0,Variable,3.5,-,N/A,,Partly Cloudy,0,2013-05-05 16:55:00
1:55 PM,59.5,42.3,53,30.22,10.0,Variable,3.5,-,N/A,,Partly Cloudy,0,2013-05-05 17:55:00
2:55 PM,61.3,42.3,50,30.20,10.0,Variable,4.6,-,N/A,,Clear,0,2013-05-05 18:55:00
3:55 PM,62.8,42.6,48,30.19,10.0,Variable,5.8,-,N/A,,Clear,0,2013-05-05 19:55:00
4:55 PM,62.4,42.8,49,30.17,10.0,Variable,5.8,-,N/A,,Clear,0,2013-05-05 20:55:00
5:55 PM,61.9,43.9,52,30.18,10.0,Variable,5.8,-,N/A,,Clear,0,2013-05-05 21:55:00
6:55 PM,60.4,44.2,55,30.17,10.0,Variable,5.8,-,N/A,,Clear,0,2013-05-05 22:55:00
7:55 PM,57.7,44.4,61,30.18,10.0,Variable,3.5,-,N/A,,Clear,0,2013-05-05 23:55:00
8:55 PM,55.2,45.1,69,30.18,10.0,Calm,Calm,-,N/A,,Clear,0,2013-05-06 00:55:00
9:55 PM,52.9,45.5,76,30.20,10.0,Calm,Calm,-,N/A,,Clear,0,2013-05-06 01:55:00
10:55 PM,48.6,45.1,88,30.20,10.0,Calm,Calm,-,N/A,,Clear,0,2013-05-06 02:55:00
11:28 PM,48.2,46.4,93,30.20,10.0,Calm,Calm,-,N/A,,Mostly Cloudy,0,2013-05-06 03:28:00
11:55 PM,51.1,46.2,83,30.19,10.0,Calm,Calm,-,N/A,,Scattered Clouds,0,2013-05-06 03:55:00